RJFT(METAR)
05/21 18:00
METAR RJFT 210900Z 29008KT 260V340 CAVOK 21/07 Q1006 RMK A2972
VOLCANIC ASH CLOUD E=
戻る
トップページへ戻る
IMOC Co,.Ltd.